Time;durP1;ratioP1;P1;durP2;ratioP2;P2;SDS_P1;SDS_P2;PMS_P1;PMS_P2;Temp;Humidity;BMP_temperature;BMP_pressure;BME280_temperature;BME280_humidity;BME280_pressure;Samples;Min_cycle;Max_cycle;Signal;HPM_P1;HPM_P2
2022/09/15 00:01:01;;;;;;;;;;;;;;;;;;5036085;28;8774;-85
2022/09/15 00:03:27;;;;;;;;;;;;;;;;;;5035758;28;8309;-83
2022/09/15 00:05:53;;;;;;;;;;;;;;;;;;5035939;28;8442;-85
2022/09/15 00:08:19;;;;;;;;;;;;;;;;;;5036038;28;7517;-85
2022/09/15 00:10:48;;;;;;;;;;;;;;;;;;5036082;28;7226;-84
2022/09/15 00:13:14;;;;;;;;;;;;;;;;;;5036549;28;7365;-84
2022/09/15 00:15:40;;;;;;;;;;;;;;;;;;5035852;28;8457;-86
2022/09/15 00:18:06;;;;;;;;;;;;;;;;;;5036367;28;8385;-85
2022/09/15 00:20:31;;;;;;;;;;;;;;;;;;5034320;28;7117;-85
2022/09/15 00:22:57;;;;;;;;;;;;;;;;;;5035537;28;8371;-87
2022/09/15 00:25:22;;;;;;;;;;;;;;;;;;5035691;28;7124;-87
2022/09/15 00:27:48;;;;;;;;;;;;;;;;;;5035289;28;8417;-82
2022/09/15 00:30:14;;;;;;;;;;;;;;;;;;5035560;28;8309;-85
2022/09/15 00:32:39;;;;;;;;;;;;;;;;;;5036081;28;8477;-84
2022/09/15 00:35:05;;;;;;;;;;;;;;;;;;5035521;28;8676;-86
2022/09/15 00:37:30;;;;;;;;;;;;;;;;;;5035498;28;8472;-86
2022/09/15 00:39:56;;;;;;;;;;;;;;;;;;5035609;28;7417;-87
2022/09/15 00:42:22;;;;;;;;;;;;;;;;;;5034792;28;7041;-85
2022/09/15 00:44:53;;;;;;;;;;;;;;;;;;5034964;28;8360;-86
2022/09/15 00:47:22;;;;;;;;;;;;;;;;;;5035497;28;7066;-83
2022/09/15 00:49:50;;;;;;;;;;;;;;;;;;5035661;28;8412;-85
2022/09/15 00:52:15;;;;;;;;;;;;;;;;;;5035107;28;7061;-85
2022/09/15 00:54:46;;;;;;;;;;;;;;;;;;5034917;28;6979;-85
2022/09/15 00:57:35;;;;;;;;;;;;;;;;;;5035569;28;7502;-85
2022/09/15 01:00:04;;;;;;;;;;;;;;;;;;5024266;28;7346;-84
2022/09/15 01:02:33;;;;;;;;;;;;;;;;;;5035163;28;8442;-86
2022/09/15 01:05:01;;;;;;;;;;;;;;;;;;5034750;28;8495;-86
2022/09/15 01:07:36;;;;;;;;;;;;;;;;;;5034770;28;8511;-85
2022/09/15 01:10:05;;;;;;;;;;;;;;;;;;5034825;28;7032;-85
2022/09/15 01:12:31;;;;;;;;;;;;;;;;;;5035094;28;7304;-83
2022/09/15 01:14:59;;;;;;;;;;;;;;;;;;5036507;28;7511;-84
2022/09/15 01:17:34;;;;;;;;;;;;;;;;;;5034246;28;7165;-85
2022/09/15 01:20:20;;;;;;;;;;;;;;;;;;5034253;28;7001;-84
2022/09/15 01:23:07;;;;;;;;;;;;;;;;;;5032738;28;8419;-85
2022/09/15 01:25:38;;;;;;;;;;;;;;;;;;5034484;28;7020;-85
2022/09/15 01:28:13;;;;;;;;;;;;;;;;;;5034446;28;8580;-85
2022/09/15 01:30:48;;;;;;;;;;;;;;;;;;5034617;28;8428;-85
2022/09/15 01:33:32;;;;;;;;;;;;;;;;;;5034539;28;8461;-85
2022/09/15 01:36:05;;;;;;;;;;;;;;;;;;5034092;28;7419;-83
2022/09/15 01:38:33;;;;;;;;;;;;;;;;;;5034565;28;7347;-84
2022/09/15 01:41:01;;;;;;;;;;;;;;;;;;5033918;28;8448;-86
2022/09/15 01:43:29;;;;;;;;;;;;;;;;;;5033990;28;7155;-85
2022/09/15 01:45:56;;;;;;;;;;;;;;;;;;5034050;28;7405;-85
2022/09/15 01:48:25;;;;;;;;;;;;;;;;;;5033788;28;7172;-86
2022/09/15 01:50:54;;;;;;;;;;;;;;;;;;5033922;28;9304;-86
2022/09/15 01:53:22;;;;;;;;;;;;;;;;;;5034138;28;7186;-86
2022/09/15 01:56:07;;;;;;;;;;;;;;;;;;5034067;28;7653;-85
2022/09/15 01:58:33;;;;;;;;;;;;;;;;;;5032922;28;8507;-85
2022/09/15 02:01:06;;;;;;;;;;;;;;;;;;5034124;28;7199;-86
2022/09/15 02:03:39;;;;;;;;;;;;;;;;;;5033552;28;8494;-85
2022/09/15 02:06:13;;;;;;;;;;;;;;;;;;5033922;28;8443;-85
2022/09/15 02:08:44;;;;;;;;;;;;;;;;;;5034340;28;7071;-86
2022/09/15 02:11:14;;;;;;;;;;;;;;;;;;5033919;28;7194;-86
2022/09/15 02:14:04;;;;;;;;;;;;;;;;;;5033979;28;8338;-85
2022/09/15 02:16:34;;;;;;;;;;;;;;;;;;5033441;28;7436;-85
2022/09/15 02:19:11;;;;;;;;;;;;;;;;;;5033800;28;7172;-85
2022/09/15 02:21:39;;;;;;;;;;;;;;;;;;5033513;28;7432;-86
2022/09/15 02:24:10;;;;;;;;;;;;;;;;;;5033972;28;7184;-86
2022/09/15 02:26:39;;;;;;;;;;;;;;;;;;5033515;28;7181;-86
2022/09/15 02:29:08;;;;;;;;;;;;;;;;;;5033997;28;8418;-86
2022/09/15 02:31:38;;;;;;;;;;;;;;;;;;5034311;28;7607;-86
2022/09/15 02:34:11;;;;;;;;;;;;;;;;;;5033224;28;8041;-83
2022/09/15 02:36:38;;;;;;;;;;;;;;;;;;5033315;28;8412;-85
2022/09/15 02:39:07;;;;;;;;;;;;;;;;;;5033523;28;8290;-85
2022/09/15 02:41:34;;;;;;;;;;;;;;;;;;5033569;28;8314;-85
2022/09/15 02:43:59;;;;;;;;;;;;;;;;;;5034302;28;8583;-86
2022/09/15 02:46:25;;;;;;;;;;;;;;;;;;5037131;28;7382;-86
2022/09/15 02:48:52;;;;;;;;;;;;;;;;;;5037665;28;8423;-85
2022/09/15 02:51:17;;;;;;;;;;;;;;;;;;5037079;28;7081;-85
2022/09/15 02:53:44;;;;;;;;;;;;;;;;;;5037330;28;8420;-84
2022/09/15 02:56:10;;;;;;;;;;;;;;;;;;5037509;28;8820;-85
2022/09/15 02:58:35;;;;;;;;;;;;;;;;;;5037236;28;7002;-86
2022/09/15 03:01:03;;;;;;;;;;;;;;;;;;5037191;28;8618;-87
2022/09/15 03:03:29;;;;;;;;;;;;;;;;;;5037119;28;7102;-86
2022/09/15 03:06:15;;;;;;;;;;;;;;;;;;5037120;28;8726;-85
2022/09/15 03:08:40;;;;;;;;;;;;;;;;;;5037771;28;7145;-87
2022/09/15 03:11:05;;;;;;;;;;;;;;;;;;5036807;28;8797;-86
2022/09/15 03:13:32;;;;;;;;;;;;;;;;;;5037428;28;7152;-86
2022/09/15 03:15:58;;;;;;;;;;;;;;;;;;5036542;28;7193;-85
2022/09/15 03:18:23;;;;;;;;;;;;;;;;;;5036984;28;8424;-85
2022/09/15 03:20:54;;;;;;;;;;;;;;;;;;5036536;28;8422;-85
2022/09/15 03:23:20;;;;;;;;;;;;;;;;;;5037158;28;7065;-85
2022/09/15 03:25:46;;;;;;;;;;;;;;;;;;5037007;28;8288;-85
2022/09/15 03:28:12;;;;;;;;;;;;;;;;;;5036486;28;8660;-85
2022/09/15 03:30:37;;;;;;;;;;;;;;;;;;5036527;28;7572;-86
2022/09/15 03:33:03;;;;;;;;;;;;;;;;;;5036366;28;7177;-85
2022/09/15 03:35:28;;;;;;;;;;;;;;;;;;5036476;28;8386;-85
2022/09/15 03:37:54;;;;;;;;;;;;;;;;;;5036760;28;8315;-86
2022/09/15 03:40:19;;;;;;;;;;;;;;;;;;5036231;28;8791;-86
2022/09/15 03:42:45;;;;;;;;;;;;;;;;;;5036258;28;8399;-85
2022/09/15 03:45:10;;;;;;;;;;;;;;;;;;5035665;28;8366;-85
2022/09/15 03:47:35;;;;;;;;;;;;;;;;;;5036140;28;7142;-85
2022/09/15 03:50:01;;;;;;;;;;;;;;;;;;5035927;28;8466;-85
2022/09/15 03:52:30;;;;;;;;;;;;;;;;;;5035819;28;8412;-85
2022/09/15 03:54:55;;;;;;;;;;;;;;;;;;5035692;28;7126;-86
2022/09/15 03:57:21;;;;;;;;;;;;;;;;;;5035846;28;8405;-85
2022/09/15 03:59:46;;;;;;;;;;;;;;;;;;5035364;28;7051;-86
2022/09/15 04:02:13;;;;;;;;;;;;;;;;;;5035293;28;8410;-85
2022/09/15 04:04:38;;;;;;;;;;;;;;;;;;5035464;28;7061;-85
2022/09/15 04:07:04;;;;;;;;;;;;;;;;;;5035252;28;8270;-85
2022/09/15 04:09:30;;;;;;;;;;;;;;;;;;5048997;28;8575;-86
2022/09/15 04:11:55;;;;;;;;;;;;;;;;;;5035480;28;9127;-86
2022/09/15 04:14:21;;;;;;;;;;;;;;;;;;5035111;28;8874;-85
2022/09/15 04:16:46;;;;;;;;;;;;;;;;;;5035286;28;7161;-85
2022/09/15 04:19:13;;;;;;;;;;;;;;;;;;5034917;28;8329;-85
2022/09/15 04:21:38;;;;;;;;;;;;;;;;;;5034950;28;7190;-84
2022/09/15 04:24:04;;;;;;;;;;;;;;;;;;5034849;28;7167;-84
2022/09/15 04:26:34;;;;;;;;;;;;;;;;;;5035055;28;7065;-86
2022/09/15 04:29:00;;;;;;;;;;;;;;;;;;5035176;28;7247;-85
2022/09/15 04:31:26;;;;;;;;;;;;;;;;;;5034907;28;7327;-86
2022/09/15 04:33:54;;;;;;;;;;;;;;;;;;5034670;28;9324;-85
2022/09/15 04:36:21;;;;;;;;;;;;;;;;;;5034702;28;7064;-86
2022/09/15 04:38:49;;;;;;;;;;;;;;;;;;5035071;28;8677;-86
2022/09/15 04:41:15;;;;;;;;;;;;;;;;;;5035131;28;7167;-85
2022/09/15 04:43:42;;;;;;;;;;;;;;;;;;5035275;28;7511;-86
2022/09/15 04:46:08;;;;;;;;;;;;;;;;;;5035481;28;7238;-85
2022/09/15 04:48:34;;;;;;;;;;;;;;;;;;5034142;28;8842;-82
2022/09/15 04:51:01;;;;;;;;;;;;;;;;;;5033586;28;7145;-86
2022/09/15 04:53:26;;;;;;;;;;;;;;;;;;5033393;28;7440;-85
2022/09/15 04:55:52;;;;;;;;;;;;;;;;;;5033864;28;7011;-85
2022/09/15 04:58:17;;;;;;;;;;;;;;;;;;5033493;28;7136;-85
2022/09/15 05:00:42;;;;;;;;;;;;;;;;;;5033653;28;8410;-85
2022/09/15 05:03:09;;;;;;;;;;;;;;;;;;5033609;28;7021;-85
2022/09/15 05:05:34;;;;;;;;;;;;;;;;;;5033537;28;8436;-83
2022/09/15 05:08:00;;;;;;;;;;;;;;;;;;5032855;28;8627;-87
2022/09/15 05:10:26;;;;;;;;;;;;;;;;;;5033442;28;8569;-84
2022/09/15 05:12:52;;;;;;;;;;;;;;;;;;5033113;28;7061;-85
2022/09/15 05:15:18;;;;;;;;;;;;;;;;;;5033919;28;7324;-86
2022/09/15 05:17:43;;;;;;;;;;;;;;;;;;5034511;28;7219;-85
2022/09/15 05:20:09;;;;;;;;;;;;;;;;;;5034869;28;7012;-83
2022/09/15 05:22:34;;;;;;;;;;;;;;;;;;5034489;28;8757;-82
2022/09/15 05:25:00;;;;;;;;;;;;;;;;;;5033399;28;8965;-83
2022/09/15 05:27:26;;;;;;;;;;;;;;;;;;5032945;28;8403;-85
2022/09/15 05:29:51;;;;;;;;;;;;;;;;;;5033036;28;7092;-85
2022/09/15 05:32:17;;;;;;;;;;;;;;;;;;5032999;28;8398;-86
2022/09/15 05:34:42;;;;;;;;;;;;;;;;;;5032942;28;8380;-84
2022/09/15 05:37:09;;;;;;;;;;;;;;;;;;5033213;28;7144;-84
2022/09/15 05:39:34;;;;;;;;;;;;;;;;;;5032623;28;7172;-83
2022/09/15 05:42:00;;;;;;;;;;;;;;;;;;5032718;28;8393;-84
2022/09/15 05:44:25;;;;;;;;;;;;;;;;;;5032583;28;8431;-84
2022/09/15 05:46:51;;;;;;;;;;;;;;;;;;5032495;28;7176;-83
2022/09/15 05:49:16;;;;;;;;;;;;;;;;;;5032912;28;8802;-85
2022/09/15 05:51:42;;;;;;;;;;;;;;;;;;5032446;28;9037;-85
2022/09/15 05:54:07;;;;;;;;;;;;;;;;;;5032476;28;8314;-84
2022/09/15 05:56:33;;;;;;;;;;;;;;;;;;5032911;28;8686;-85
2022/09/15 05:58:58;;;;;;;;;;;;;;;;;;5032558;28;7020;-83
2022/09/15 06:01:25;;;;;;;;;;;;;;;;;;5032620;28;8729;-86
2022/09/15 06:03:52;;;;;;;;;;;;;;;;;;5032692;28;7071;-84
2022/09/15 06:06:18;;;;;;;;;;;;;;;;;;5032823;28;7197;-86
2022/09/15 06:08:47;;;;;;;;;;;;;;;;;;5033202;28;8712;-84
2022/09/15 06:11:15;;;;;;;;;;;;;;;;;;5033813;28;7051;-83
2022/09/15 06:13:41;;;;;;;;;;;;;;;;;;5033281;28;7176;-84
2022/09/15 06:16:09;;;;;;;;;;;;;;;;;;5032801;28;8474;-86
2022/09/15 06:18:36;;;;;;;;;;;;;;;;;;5032463;28;8407;-85
2022/09/15 06:21:03;;;;;;;;;;;;;;;;;;5037631;28;8536;-81
2022/09/15 06:23:28;;;;;;;;;;;;;;;;;;5037526;28;7519;-82
2022/09/15 06:25:54;;;;;;;;;;;;;;;;;;5037749;28;7033;-86
2022/09/15 06:28:20;;;;;;;;;;;;;;;;;;5037592;28;8398;-85
2022/09/15 06:30:48;;;;;;;;;;;;;;;;;;5038130;28;7052;-85
2022/09/15 06:33:14;;;;;;;;;;;;;;;;;;5037645;28;7433;-86
2022/09/15 06:35:40;;;;;;;;;;;;;;;;;;5037588;28;7180;-85
2022/09/15 06:38:06;;;;;;;;;;;;;;;;;;5037048;28;7222;-86
2022/09/15 06:40:32;;;;;;;;;;;;;;;;;;5037417;28;7637;-85
2022/09/15 06:42:58;;;;;;;;;;;;;;;;;;5037103;28;7087;-85
2022/09/15 06:45:23;;;;;;;;;;;;;;;;;;5038717;28;8730;-88
2022/09/15 06:47:50;;;;;;;;;;;;;;;;;;5037268;28;7364;-84
2022/09/15 06:50:16;;;;;;;;;;;;;;;;;;5037509;28;7025;-85
2022/09/15 06:52:42;;;;;;;;;;;;;;;;;;5037334;28;8458;-85
2022/09/15 06:55:08;;;;;;;;;;;;;;;;;;5037051;28;8424;-85
2022/09/15 06:57:34;;;;;;;;;;;;;;;;;;5037764;28;8487;-85
2022/09/15 07:00:01;;;;;;;;;;;;;;;;;;5037276;28;7404;-85
2022/09/15 07:02:26;;;;;;;;;;;;;;;;;;5037520;28;7197;-85
2022/09/15 07:04:52;;;;;;;;;;;;;;;;;;5036830;28;8417;-86
2022/09/15 07:07:17;;;;;;;;;;;;;;;;;;5037372;28;7038;-85
2022/09/15 07:09:43;;;;;;;;;;;;;;;;;;5036699;28;8911;-84
2022/09/15 07:12:08;;;;;;;;;;;;;;;;;;5036904;28;8388;-84
2022/09/15 07:14:34;;;;;;;;;;;;;;;;;;5036103;28;9017;-84
2022/09/15 07:16:59;;;;;;;;;;;;;;;;;;5036902;28;8492;-85
2022/09/15 07:19:25;;;;;;;;;;;;;;;;;;5036467;28;7013;-85
2022/09/15 07:21:51;;;;;;;;;;;;;;;;;;5036373;28;8604;-83
2022/09/15 07:24:17;;;;;;;;;;;;;;;;;;5035929;28;7231;-85
2022/09/15 07:26:42;;;;;;;;;;;;;;;;;;5035493;28;8471;-86
2022/09/15 07:29:08;;;;;;;;;;;;;;;;;;5035992;28;8421;-86
2022/09/15 07:31:36;;;;;;;;;;;;;;;;;;5036066;28;7123;-85
2022/09/15 07:34:02;;;;;;;;;;;;;;;;;;5035805;28;8659;-85
2022/09/15 07:36:28;;;;;;;;;;;;;;;;;;5035884;28;8437;-84
2022/09/15 07:38:54;;;;;;;;;;;;;;;;;;5035514;28;8352;-85
2022/09/15 07:41:23;;;;;;;;;;;;;;;;;;5035894;28;8385;-84
2022/09/15 07:43:50;;;;;;;;;;;;;;;;;;5036041;28;8485;-84
2022/09/15 07:46:17;;;;;;;;;;;;;;;;;;5036578;28;8321;-85
2022/09/15 07:48:45;;;;;;;;;;;;;;;;;;5035983;28;8806;-84
2022/09/15 07:51:10;;;;;;;;;;;;;;;;;;5035937;28;8413;-85
2022/09/15 07:53:36;;;;;;;;;;;;;;;;;;5035936;28;8468;-85
2022/09/15 07:56:01;;;;;;;;;;;;;;;;;;5036431;28;8583;-85
2022/09/15 07:58:28;;;;;;;;;;;;;;;;;;5035761;28;7133;-85
2022/09/15 08:00:53;;;;;;;;;;;;;;;;;;5036142;28;7177;-85
2022/09/15 08:03:19;;;;;;;;;;;;;;;;;;5036023;28;8385;-85
2022/09/15 08:05:45;;;;;;;;;;;;;;;;;;5036035;28;6811;-85
2022/09/15 08:08:11;;;;;;;;;;;;;;;;;;5036616;28;7386;-85
2022/09/15 08:10:38;;;;;;;;;;;;;;;;;;5035641;28;7154;-85
2022/09/15 08:13:03;;;;;;;;;;;;;;;;;;5035474;28;7085;-82
2022/09/15 08:15:29;;;;;;;;;;;;;;;;;;5038724;28;8550;-83
2022/09/15 08:17:54;;;;;;;;;;;;;;;;;;5035578;28;8380;-83
2022/09/15 08:20:20;;;;;;;;;;;;;;;;;;5035711;28;7573;-85
2022/09/15 08:22:46;;;;;;;;;;;;;;;;;;5035804;28;7159;-84
2022/09/15 08:25:12;;;;;;;;;;;;;;;;;;5036102;28;7032;-84
2022/09/15 08:27:38;;;;;;;;;;;;;;;;;;5036266;28;7411;-85
2022/09/15 08:30:05;;;;;;;;;;;;;;;;;;5035320;28;7334;-84
2022/09/15 08:32:32;;;;;;;;;;;;;;;;;;5035819;28;7055;-84
2022/09/15 08:34:58;;;;;;;;;;;;;;;;;;5035188;28;7177;-84
2022/09/15 08:37:23;;;;;;;;;;;;;;;;;;5035155;28;7181;-84
2022/09/15 08:39:49;;;;;;;;;;;;;;;;;;5035975;28;8704;-84
2022/09/15 08:42:17;;;;;;;;;;;;;;;;;;5034466;28;7070;-84
2022/09/15 08:44:45;;;;;;;;;;;;;;;;;;5035410;28;7056;-85
2022/09/15 08:47:17;;;;;;;;;;;;;;;;;;5035152;28;8428;-85
2022/09/15 08:50:03;;;;;;;;;;;;;;;;;;5035327;28;8632;-85
2022/09/15 08:52:35;;;;;;;;;;;;;;;;;;5035193;28;9180;-84
2022/09/15 08:55:05;;;;;;;;;;;;;;;;;;5035723;28;6898;-84
2022/09/15 08:57:31;;;;;;;;;;;;;;;;;;5034705;28;7178;-86
2022/09/15 08:59:58;;;;;;;;;;;;;;;;;;5035020;28;7047;-85
2022/09/15 09:02:35;;;;;;;;;;;;;;;;;;5034794;28;8466;-84
2022/09/15 09:05:10;;;;;;;;;;;;;;;;;;5034616;28;8394;-85
2022/09/15 09:07:41;;;;;;;;;;;;;;;;;;5034941;28;8805;-85
2022/09/15 09:10:07;;;;;;;;;;;;;;;;;;5034626;28;8508;-85
2022/09/15 09:12:35;;;;;;;;;;;;;;;;;;5034970;28;7136;-84
2022/09/15 09:15:19;;;;;;;;;;;;;;;;;;5034736;28;8426;-85
2022/09/15 09:18:20;;;;;;;;;;;;;;;;;;5034300;28;8462;-85
2022/09/15 09:20:57;;;;;;;;;;;;;;;;;;4958856;28;8875;-85
2022/09/15 09:23:27;;;;;;;;;;;;;;;;;;4974997;28;8762;-85
2022/09/15 09:25:55;;;;;;;;;;;;;;;;;;4974608;28;8715;-85
2022/09/15 09:28:28;;;;;;;;;;;;;;;;;;4975340;28;8423;-84
2022/09/15 09:31:06;;;;;;;;;;;;;;;;;;4974905;28;9369;-84
2022/09/15 09:33:42;;;;;;;;;;;;;;;;;;4974908;28;8301;-84
2022/09/15 09:36:10;;;;;;;;;;;;;;;;;;4973745;28;8486;-85
2022/09/15 09:38:42;;;;;;;;;;;;;;;;;;4973228;28;8323;-84
2022/09/15 09:41:18;;;;;;;;;;;;;;;;;;4973043;28;7169;-85
2022/09/15 09:43:46;;;;;;;;;;;;;;;;;;4972051;28;8947;-84
2022/09/15 09:46:16;;;;;;;;;;;;;;;;;;4972063;28;8394;-84
2022/09/15 09:48:49;;;;;;;;;;;;;;;;;;4972097;28;7020;-84
2022/09/15 09:51:30;;;;;;;;;;;;;;;;;;4972593;28;8326;-85
2022/09/15 09:54:02;;;;;;;;;;;;;;;;;;4967593;28;8825;-86
2022/09/15 09:56:28;;;;;;;;;;;;;;;;;;5033764;28;8586;-85
2022/09/15 09:58:54;;;;;;;;;;;;;;;;;;5033956;28;7011;-85
2022/09/15 10:01:23;;;;;;;;;;;;;;;;;;5033808;28;7163;-85
2022/09/15 10:04:09;;;;;;;;;;;;;;;;;;5034326;28;8467;-85
2022/09/15 10:06:34;;;;;;;;;;;;;;;;;;5033894;28;7333;-85
2022/09/15 10:09:04;;;;;;;;;;;;;;;;;;5034076;28;8515;-85
2022/09/15 10:11:57;;;;;;;;;;;;;;;;;;5033868;28;7049;-85
2022/09/15 10:14:29;;;;;;;;;;;;;;;;;;5031100;28;7073;-85
2022/09/15 10:17:00;;;;;;;;;;;;;;;;;;5033432;28;8303;-85
2022/09/15 10:19:31;;;;;;;;;;;;;;;;;;5033557;28;7449;-87
2022/09/15 10:22:00;;;;;;;;;;;;;;;;;;5033719;28;7415;-85
2022/09/15 10:24:25;;;;;;;;;;;;;;;;;;5033396;28;7397;-86
2022/09/15 10:27:04;;;;;;;;;;;;;;;;;;5033468;28;8462;-85
2022/09/15 10:29:37;;;;;;;;;;;;;;;;;;5033380;28;8740;-86
2022/09/15 10:32:18;;;;;;;;;;;;;;;;;;5033848;28;7222;-85
2022/09/15 10:34:44;;;;;;;;;;;;;;;;;;5033276;28;7175;-84
2022/09/15 10:37:26;;;;;;;;;;;;;;;;;;5034093;28;8659;-85
2022/09/15 10:39:58;;;;;;;;;;;;;;;;;;5033478;28;8474;-86
2022/09/15 10:42:24;;;;;;;;;;;;;;;;;;5033151;28;7020;-86
2022/09/15 10:44:59;;;;;;;;;;;;;;;;;;5033587;28;8391;-85
2022/09/15 10:47:25;;;;;;;;;;;;;;;;;;5033868;28;8599;-85
2022/09/15 10:50:04;;;;;;;;;;;;;;;;;;5033540;28;9473;-86
2022/09/15 10:52:45;;;;;;;;;;;;;;;;;;5033162;28;8468;-86
2022/09/15 10:55:24;;;;;;;;;;;;;;;;;;5033736;28;7910;-85
2022/09/15 10:58:15;;;;;;;;;;;;;;;;;;5033169;28;7664;-85
2022/09/15 11:00:40;;;;;;;;;;;;;;;;;;5034126;28;7238;-85
2022/09/15 11:03:26;;;;;;;;;;;;;;;;;;5033844;28;8307;-85
2022/09/15 11:05:57;;;;;;;;;;;;;;;;;;5035367;28;7082;-86
2022/09/15 11:08:53;;;;;;;;;;;;;;;;;;5036864;28;8806;-86
2022/09/15 11:11:18;;;;;;;;;;;;;;;;;;4968417;28;7181;-86
2022/09/15 11:13:49;;;;;;;;;;;;;;;;;;5036727;28;8401;-87
2022/09/15 11:16:18;;;;;;;;;;;;;;;;;;5037150;28;8707;-86
2022/09/15 11:19:03;;;;;;;;;;;;;;;;;;5036475;28;8470;-86
2022/09/15 11:21:35;;;;;;;;;;;;;;;;;;5037454;28;7039;-86
2022/09/15 11:24:19;;;;;;;;;;;;;;;;;;5036642;28;8528;-86
2022/09/15 11:26:51;;;;;;;;;;;;;;;;;;5036439;28;8694;-88
2022/09/15 11:29:42;;;;;;;;;;;;;;;;;;5036784;28;8459;-86
2022/09/15 11:32:12;;;;;;;;;;;;;;;;;;5006786;28;8398;-86
2022/09/15 11:34:51;;;;;;;;;;;;;;;;;;5034697;28;7044;-82
2022/09/15 11:37:20;;;;;;;;;;;;;;;;;;5037172;28;7138;-86
2022/09/15 11:39:46;;;;;;;;;;;;;;;;;;5035177;28;8663;-79
2022/09/15 11:42:12;;;;;;;;;;;;;;;;;;5034977;28;7022;-87
2022/09/15 11:44:40;;;;;;;;;;;;;;;;;;5036212;28;8523;-88
2022/09/15 11:47:18;;;;;;;;;;;;;;;;;;5036283;28;8438;-87
2022/09/15 11:49:52;;;;;;;;;;;;;;;;;;5036895;28;9326;-85
2022/09/15 11:52:36;;;;;;;;;;;;;;;;;;5036470;28;8417;-85
2022/09/15 11:55:24;;;;;;;;;;;;;;;;;;5035926;28;8438;-86
2022/09/15 11:57:56;;;;;;;;;;;;;;;;;;5036033;28;8899;-88
2022/09/15 12:00:21;;;;;;;;;;;;;;;;;;5036281;28;8429;-87
2022/09/15 12:03:02;;;;;;;;;;;;;;;;;;5035793;28;8750;-86
2022/09/15 12:05:30;;;;;;;;;;;;;;;;;;5036298;28;9262;-85
2022/09/15 12:08:19;;;;;;;;;;;;;;;;;;5036007;28;7108;-86
2022/09/15 12:10:48;;;;;;;;;;;;;;;;;;5025538;28;8787;-87
2022/09/15 12:13:18;;;;;;;;;;;;;;;;;;5035756;28;8429;-86
2022/09/15 12:15:46;;;;;;;;;;;;;;;;;;5035464;28;7129;-85
2022/09/15 12:18:18;;;;;;;;;;;;;;;;;;5034472;28;7438;-87
2022/09/15 12:20:53;;;;;;;;;;;;;;;;;;5036106;28;7066;-87
2022/09/15 12:23:31;;;;;;;;;;;;;;;;;;5036276;28;7416;-87
2022/09/15 12:26:03;;;;;;;;;;;;;;;;;;5035521;28;8440;-88
2022/09/15 12:28:52;;;;;;;;;;;;;;;;;;5035324;28;8865;-87
2022/09/15 12:31:26;;;;;;;;;;;;;;;;;;5036607;28;7090;-86
2022/09/15 12:33:53;;;;;;;;;;;;;;;;;;5035871;28;8442;-87
2022/09/15 12:36:28;;;;;;;;;;;;;;;;;;5035317;28;8348;-87
2022/09/15 12:38:54;;;;;;;;;;;;;;;;;;5035092;28;7453;-87
2022/09/15 12:41:20;;;;;;;;;;;;;;;;;;5035375;28;7023;-87
2022/09/15 12:43:57;;;;;;;;;;;;;;;;;;5035060;28;8532;-88
2022/09/15 12:46:24;;;;;;;;;;;;;;;;;;5035252;28;7215;-87
2022/09/15 12:48:53;;;;;;;;;;;;;;;;;;5034643;28;7222;-85
2022/09/15 12:51:22;;;;;;;;;;;;;;;;;;5034826;28;7508;-81
2022/09/15 12:53:51;;;;;;;;;;;;;;;;;;5034661;28;7054;-86
2022/09/15 12:56:25;;;;;;;;;;;;;;;;;;5034713;28;7054;-89
2022/09/15 12:58:53;;;;;;;;;;;;;;;;;;5033488;28;8401;-86
2022/09/15 13:01:21;;;;;;;;;;;;;;;;;;5035106;28;8434;-86
2022/09/15 13:03:48;;;;;;;;;;;;;;;;;;5034668;28;7190;-86
2022/09/15 13:06:13;;;;;;;;;;;;;;;;;;5034874;28;7384;-86
2022/09/15 13:08:45;;;;;;;;;;;;;;;;;;5035562;28;7203;-83
2022/09/15 13:11:37;;;;;;;;;;;;;;;;;;5034111;28;7623;-82
2022/09/15 13:14:03;;;;;;;;;;;;;;;;;;5025093;28;8444;-87
2022/09/15 13:16:36;;;;;;;;;;;;;;;;;;5035880;28;7035;-87
2022/09/15 13:19:06;;;;;;;;;;;;;;;;;;5037712;28;8490;-82
2022/09/15 13:21:35;;;;;;;;;;;;;;;;;;5040455;28;8484;-87
2022/09/15 13:24:05;;;;;;;;;;;;;;;;;;5038224;28;8408;-85
2022/09/15 13:26:32;;;;;;;;;;;;;;;;;;5037329;28;8437;-88
2022/09/15 13:28:59;;;;;;;;;;;;;;;;;;5036610;28;8809;-86
2022/09/15 13:31:31;;;;;;;;;;;;;;;;;;5038056;28;8538;-87
2022/09/15 13:34:12;;;;;;;;;;;;;;;;;;5035507;28;7080;-86
2022/09/15 13:36:52;;;;;;;;;;;;;;;;;;5034251;28;7181;-86
2022/09/15 13:39:21;;;;;;;;;;;;;;;;;;5034855;28;7062;-88
2022/09/15 13:41:56;;;;;;;;;;;;;;;;;;5033965;28;9162;-88
2022/09/15 13:44:27;;;;;;;;;;;;;;;;;;5034134;28;7406;-87
2022/09/15 13:47:21;;;;;;;;;;;;;;;;;;5034191;28;8423;-87
2022/09/15 13:50:03;;;;;;;;;;;;;;;;;;5034156;28;8854;-86
2022/09/15 13:52:28;;;;;;;;;;;;;;;;;;5034442;28;7340;-84
2022/09/15 13:55:13;;;;;;;;;;;;;;;;;;5034143;28;8431;-87
2022/09/15 13:57:40;;;;;;;;;;;;;;;;;;5033769;28;7048;-86
2022/09/15 14:00:18;;;;;;;;;;;;;;;;;;5033882;28;7085;-87
2022/09/15 14:02:46;;;;;;;;;;;;;;;;;;5033794;28;8815;-87
2022/09/15 14:05:12;;;;;;;;;;;;;;;;;;5033891;28;7211;-86
2022/09/15 14:07:38;;;;;;;;;;;;;;;;;;5033675;28;8353;-86
2022/09/15 14:10:05;;;;;;;;;;;;;;;;;;5033060;28;8451;-86
2022/09/15 14:12:35;;;;;;;;;;;;;;;;;;5033702;28;6847;-86
2022/09/15 14:15:05;;;;;;;;;;;;;;;;;;5033541;28;7152;-87
2022/09/15 14:17:33;;;;;;;;;;;;;;;;;;5033459;28;8685;-87
2022/09/15 14:19:59;;;;;;;;;;;;;;;;;;5033761;28;8456;-85
2022/09/15 14:22:33;;;;;;;;;;;;;;;;;;5033792;28;7193;-85
2022/09/15 14:25:03;;;;;;;;;;;;;;;;;;5033412;28;7130;-86
2022/09/15 14:27:32;;;;;;;;;;;;;;;;;;5035481;28;7442;-86
2022/09/15 14:30:02;;;;;;;;;;;;;;;;;;5033239;28;8829;-86
2022/09/15 14:32:33;;;;;;;;;;;;;;;;;;5033544;28;7121;-86
2022/09/15 14:35:04;;;;;;;;;;;;;;;;;;5033864;28;8705;-86
2022/09/15 14:37:33;;;;;;;;;;;;;;;;;;5033605;28;7226;-84
2022/09/15 14:40:01;;;;;;;;;;;;;;;;;;5033876;28;7050;-84
2022/09/15 14:42:32;;;;;;;;;;;;;;;;;;5037274;28;8464;-85
2022/09/15 14:45:09;;;;;;;;;;;;;;;;;;5037181;28;7370;-86
2022/09/15 14:47:36;;;;;;;;;;;;;;;;;;5038078;28;8450;-85
2022/09/15 14:50:13;;;;;;;;;;;;;;;;;;5037623;28;8675;-87
2022/09/15 14:52:59;;;;;;;;;;;;;;;;;;5037320;28;8715;-84
2022/09/15 14:55:24;;;;;;;;;;;;;;;;;;5036371;28;8725;-87
2022/09/15 14:57:58;;;;;;;;;;;;;;;;;;5037247;28;7001;-87
2022/09/15 15:00:27;;;;;;;;;;;;;;;;;;5036960;28;7016;-86
2022/09/15 15:03:05;;;;;;;;;;;;;;;;;;5039262;28;7171;-85
2022/09/15 15:05:41;;;;;;;;;;;;;;;;;;5037239;28;6847;-84
2022/09/15 15:08:11;;;;;;;;;;;;;;;;;;5036754;28;8341;-85
2022/09/15 15:10:37;;;;;;;;;;;;;;;;;;5037732;28;8497;-86
2022/09/15 15:13:11;;;;;;;;;;;;;;;;;;5037448;28;7479;-86
2022/09/15 15:15:38;;;;;;;;;;;;;;;;;;5036777;28;7168;-85
2022/09/15 15:18:06;;;;;;;;;;;;;;;;;;5036887;28;7179;-87
2022/09/15 15:20:31;;;;;;;;;;;;;;;;;;5036971;28;8321;-85
2022/09/15 15:23:12;;;;;;;;;;;;;;;;;;5036811;28;8409;-86
2022/09/15 15:25:39;;;;;;;;;;;;;;;;;;5036492;28;7179;-86
2022/09/15 15:28:05;;;;;;;;;;;;;;;;;;5036539;28;7091;-88
2022/09/15 15:30:34;;;;;;;;;;;;;;;;;;5036741;28;7265;-86
2022/09/15 15:33:05;;;;;;;;;;;;;;;;;;5036547;28;8832;-85
2022/09/15 15:35:34;;;;;;;;;;;;;;;;;;5036965;28;8411;-85
2022/09/15 15:38:18;;;;;;;;;;;;;;;;;;5036751;28;7374;-86
2022/09/15 15:40:44;;;;;;;;;;;;;;;;;;5036664;28;7432;-86
2022/09/15 15:43:19;;;;;;;;;;;;;;;;;;5036143;28;7179;-85
2022/09/15 15:46:04;;;;;;;;;;;;;;;;;;5036136;28;8445;-85
2022/09/15 15:48:32;;;;;;;;;;;;;;;;;;5036530;28;7270;-86
2022/09/15 15:50:58;;;;;;;;;;;;;;;;;;5035635;28;9221;-86
2022/09/15 15:53:24;;;;;;;;;;;;;;;;;;5037011;28;7343;-87
2022/09/15 15:55:52;;;;;;;;;;;;;;;;;;5036307;28;7122;-86
2022/09/15 15:58:18;;;;;;;;;;;;;;;;;;5036385;28;7299;-85
2022/09/15 16:00:49;;;;;;;;;;;;;;;;;;5035870;28;7053;-84
2022/09/15 16:03:16;;;;;;;;;;;;;;;;;;5035967;28;7044;-88
2022/09/15 16:05:46;;;;;;;;;;;;;;;;;;5035771;28;7242;-85
2022/09/15 16:08:29;;;;;;;;;;;;;;;;;;5035906;28;7039;-87
2022/09/15 16:10:56;;;;;;;;;;;;;;;;;;5036000;28;7072;-87
2022/09/15 16:13:22;;;;;;;;;;;;;;;;;;5035722;28;8500;-84
2022/09/15 16:15:48;;;;;;;;;;;;;;;;;;5035642;28;8689;-85
2022/09/15 16:18:15;;;;;;;;;;;;;;;;;;5035832;28;8341;-87
2022/09/15 16:20:40;;;;;;;;;;;;;;;;;;5036057;28;7083;-86
2022/09/15 16:23:11;;;;;;;;;;;;;;;;;;5034465;28;7224;-85
2022/09/15 16:25:56;;;;;;;;;;;;;;;;;;5034392;28;8581;-84
2022/09/15 16:28:22;;;;;;;;;;;;;;;;;;5035694;28;8516;-87
2022/09/15 16:30:47;;;;;;;;;;;;;;;;;;5035111;28;7193;-85
2022/09/15 16:33:14;;;;;;;;;;;;;;;;;;5035029;28;7038;-87
2022/09/15 16:35:49;;;;;;;;;;;;;;;;;;5036288;28;7197;-86
2022/09/15 16:38:19;;;;;;;;;;;;;;;;;;5035109;28;8809;-86
2022/09/15 16:40:49;;;;;;;;;;;;;;;;;;5034854;28;7180;-86
2022/09/15 16:43:17;;;;;;;;;;;;;;;;;;5035721;28;7963;-85
2022/09/15 16:45:43;;;;;;;;;;;;;;;;;;5034969;28;7182;-87
2022/09/15 16:48:11;;;;;;;;;;;;;;;;;;5035634;28;7573;-86
2022/09/15 16:50:37;;;;;;;;;;;;;;;;;;5035029;28;8708;-86
2022/09/15 16:53:03;;;;;;;;;;;;;;;;;;5035332;28;8471;-84
2022/09/15 16:55:34;;;;;;;;;;;;;;;;;;5035660;28;7238;-84
2022/09/15 16:58:00;;;;;;;;;;;;;;;;;;5035013;28;7444;-84
2022/09/15 17:00:30;;;;;;;;;;;;;;;;;;5034811;28;7186;-85
2022/09/15 17:02:56;;;;;;;;;;;;;;;;;;5034348;28;8425;-86
2022/09/15 17:05:35;;;;;;;;;;;;;;;;;;5034635;28;6999;-86
2022/09/15 17:08:01;;;;;;;;;;;;;;;;;;5034628;28;7202;-84
2022/09/15 17:10:27;;;;;;;;;;;;;;;;;;5034637;28;8554;-86
2022/09/15 17:12:52;;;;;;;;;;;;;;;;;;5034669;28;7510;-84
2022/09/15 17:15:23;;;;;;;;;;;;;;;;;;5033106;28;8444;-84
2022/09/15 17:17:49;;;;;;;;;;;;;;;;;;5033419;28;8618;-85
2022/09/15 17:20:14;;;;;;;;;;;;;;;;;;5033186;28;8734;-85